Time;durP1;ratioP1;P1;durP2;ratioP2;P2;SDS_P1;SDS_P2;PMS_P1;PMS_P2;Temp;Humidity;BMP_temperature;BMP_pressure;BME280_temperature;BME280_humidity;BME280_pressure;Samples;Min_cycle;Max_cycle;Signal;HPM_P1;HPM_P2
2023/06/22 00:00:52;;;;;;;2.20;2.10;;;24.40;46.30;;;;;;5007899;28;20993;-76
2023/06/22 00:03:18;;;;;;;2.17;2.07;;;24.40;46.30;;;;;;5004046;28;20449;-76
2023/06/22 00:05:44;;;;;;;2.40;2.30;;;24.40;46.30;;;;;;5019241;28;20821;-76
2023/06/22 00:08:10;;;;;;;2.30;2.20;;;24.40;46.30;;;;;;5018481;28;20567;-76
2023/06/22 00:10:35;;;;;;;2.40;2.20;;;24.40;46.30;;;;;;5016167;28;20500;-76
2023/06/22 00:13:01;;;;;;;2.23;2.13;;;24.40;46.50;;;;;;5020953;28;20667;-76
2023/06/22 00:15:27;;;;;;;2.67;2.47;;;24.40;46.30;;;;;;5019443;28;20222;-76
2023/06/22 00:17:52;;;;;;;2.13;2.03;;;24.40;46.30;;;;;;5020032;28;20241;-76
2023/06/22 00:20:18;;;;;;;2.43;2.33;;;24.40;46.40;;;;;;5015206;28;20226;-76
2023/06/22 00:22:47;;;;;;;2.33;2.23;;;24.40;46.30;;;;;;5010939;28;20250;-76
2023/06/22 00:25:13;;;;;;;2.13;2.03;;;24.40;46.30;;;;;;5010238;28;20289;-76
2023/06/22 00:27:39;;;;;;;2.30;2.20;;;24.40;46.30;;;;;;5010079;28;20555;-76
2023/06/22 00:30:05;;;;;;;2.27;2.17;;;24.40;46.30;;;;;;5010417;28;20467;-76
2023/06/22 00:32:31;;;;;;;2.03;1.93;;;24.40;46.30;;;;;;5018829;28;20227;-76
2023/06/22 00:34:56;;;;;;;2.20;2.10;;;24.40;46.30;;;;;;5016499;28;20970;-76
2023/06/22 00:37:25;;;;;;;2.00;1.90;;;24.40;46.30;;;;;;5015302;28;20250;-76
2023/06/22 00:39:51;;;;;;;2.10;2.00;;;24.40;46.40;;;;;;5007039;28;20229;-76
2023/06/22 00:42:16;;;;;;;2.80;2.00;;;24.40;46.30;;;;;;5007255;28;20592;-77
2023/06/22 00:44:42;;;;;;;2.53;2.43;;;24.40;46.30;;;;;;5018849;28;21137;-76
2023/06/22 00:47:07;;;;;;;2.33;2.23;;;24.40;46.30;;;;;;5011030;28;20234;-76
2023/06/22 00:49:33;;;;;;;2.60;2.40;;;24.40;46.30;;;;;;5000218;28;20227;-76
2023/06/22 00:51:59;;;;;;;2.20;2.07;;;24.40;46.30;;;;;;5000483;28;20262;-76
2023/06/22 00:54:25;;;;;;;2.33;2.23;;;24.40;46.30;;;;;;4999500;28;20289;-76
2023/06/22 00:56:56;;;;;;;2.10;2.00;;;24.40;46.30;;;;;;5015808;28;20322;-76
2023/06/22 00:59:22;;;;;;;2.53;2.43;;;24.40;46.30;;;;;;5020212;28;20464;-76
2023/06/22 01:01:48;;;;;;;2.30;2.20;;;24.40;46.30;;;;;;5018731;28;21028;-76
2023/06/22 01:04:14;;;;;;;2.50;2.40;;;24.40;46.30;;;;;;5020993;28;20464;-75
2023/06/22 01:06:47;;;;;;;1.97;1.87;;;24.40;46.30;;;;;;5018893;28;20267;-76
2023/06/22 01:09:19;;;;;;;2.13;2.03;;;24.40;47.10;;;;;;5013877;28;20475;-76
2023/06/22 01:11:53;;;;;;;2.33;2.23;;;24.40;46.30;;;;;;5018421;28;21053;-76
2023/06/22 01:14:24;;;;;;;2.13;2.03;;;24.40;47.10;;;;;;5003267;28;20469;-76
2023/06/22 01:16:53;;;;;;;2.30;2.20;;;24.40;46.30;;;;;;5010466;28;20520;-76
2023/06/22 01:19:41;;;;;;;2.20;2.10;;;24.40;46.30;;;;;;5028882;28;20498;-76
2023/06/22 01:22:12;;;;;;;2.47;2.30;;;24.40;46.30;;;;;;5013615;28;20472;-76
2023/06/22 01:25:05;;;;;;;2.27;2.17;;;24.40;46.30;;;;;;5020346;28;20490;-76
2023/06/22 01:28:16;;;;;;;2.53;2.43;;;24.40;46.30;;;;;;5009909;28;20484;-76
2023/06/22 01:30:45;;;;;;;2.20;2.10;;;24.40;46.30;;;;;;5006749;28;20468;-76
2023/06/22 01:33:12;;;;;;;1.90;1.80;;;24.40;46.30;;;;;;5004042;28;20467;-76
2023/06/22 01:35:38;;;;;;;2.27;2.17;;;24.40;46.30;;;;;;5004676;28;20468;-76
2023/06/22 01:38:06;;;;;;;2.43;2.33;;;24.40;46.40;;;;;;5008845;28;20486;-76
2023/06/22 01:40:33;;;;;;;1.90;1.80;;;24.40;46.30;;;;;;5007726;28;20991;-76
2023/06/22 01:43:00;;;;;;;2.33;2.23;;;24.40;46.30;;;;;;5003415;28;21391;-75
2023/06/22 01:45:27;;;;;;;2.33;2.23;;;24.40;46.30;;;;;;5008696;28;20457;-76
2023/06/22 01:47:54;;;;;;;2.20;2.10;;;24.40;46.30;;;;;;5014607;28;20464;-77
2023/06/22 01:50:20;;;;;;;2.10;2.00;;;24.40;46.30;;;;;;5011298;28;20467;-76
2023/06/22 01:52:45;;;;;;;2.57;2.47;;;24.40;46.30;;;;;;5011213;28;20487;-76
2023/06/22 01:55:11;;;;;;;2.13;2.03;;;24.40;46.30;;;;;;5013965;28;20854;-76
2023/06/22 01:57:38;;;;;;;2.30;2.10;;;24.40;46.30;;;;;;5013806;28;20396;-76
2023/06/22 02:00:10;;;;;;;2.20;2.10;;;24.40;46.30;;;;;;5013580;28;20749;-76
2023/06/22 02:02:51;;;;;;;2.20;2.10;;;24.40;46.30;;;;;;5011212;28;20456;-76
2023/06/22 02:05:19;;;;;;;2.50;2.40;;;24.40;46.30;;;;;;5017084;28;21242;-76
2023/06/22 02:07:56;;;;;;;2.20;2.10;;;24.40;46.30;;;;;;5008799;28;20490;-76
2023/06/22 02:10:23;;;;;;;2.70;2.50;;;24.40;46.40;;;;;;5011172;28;20535;-76
2023/06/22 02:12:50;;;;;;;1.93;1.83;;;24.40;46.50;;;;;;5016205;28;20456;-76
2023/06/22 02:15:16;;;;;;;2.13;2.03;;;24.40;46.40;;;;;;5018208;28;20540;-76
2023/06/22 02:17:44;;;;;;;2.47;2.27;;;24.40;46.40;;;;;;5010356;28;21029;-76
2023/06/22 02:20:14;;;;;;;2.70;2.50;;;24.40;46.50;;;;;;4997187;28;20901;-76
2023/06/22 02:22:40;;;;;;;2.00;1.90;;;24.40;46.40;;;;;;4999102;28;20503;-76
2023/06/22 02:25:05;;;;;;;2.07;1.97;;;24.40;46.30;;;;;;4998172;28;20460;-76
2023/06/22 02:27:31;;;;;;;2.20;2.10;;;24.40;46.40;;;;;;5010807;28;20223;-76
2023/06/22 02:29:57;;;;;;;2.07;1.97;;;24.40;46.40;;;;;;5006375;28;20224;-76
2023/06/22 02:32:22;;;;;;;2.47;2.30;;;24.40;46.30;;;;;;5020437;28;20553;-76
2023/06/22 02:34:48;;;;;;;2.40;2.20;;;24.40;46.30;;;;;;5017141;28;20697;-76
2023/06/22 02:37:14;;;;;;;2.10;2.00;;;24.40;46.40;;;;;;5018968;28;20221;-78
2023/06/22 02:39:40;;;;;;;2.27;2.17;;;24.40;46.30;;;;;;5008957;28;20234;-76
2023/06/22 02:42:06;;;;;;;1.93;1.83;;;24.40;46.30;;;;;;5018362;28;21000;-76
2023/06/22 02:44:32;;;;;;;2.13;2.03;;;24.40;46.70;;;;;;5014662;28;20729;-76
2023/06/22 02:46:58;;;;;;;2.27;2.17;;;24.40;46.30;;;;;;5010674;28;20440;-76
2023/06/22 02:49:24;;;;;;;2.30;2.20;;;24.40;46.30;;;;;;5010896;28;20223;-76
2023/06/22 02:51:50;;;;;;;2.10;2.00;;;24.40;46.40;;;;;;5015844;28;20959;-76
2023/06/22 02:54:16;;;;;;;2.20;2.10;;;24.40;46.30;;;;;;5015001;28;20225;-76
2023/06/22 02:56:43;;;;;;;2.67;2.47;;;24.40;46.30;;;;;;5004781;28;20497;-76
2023/06/22 02:59:10;;;;;;;2.03;1.93;;;24.40;46.30;;;;;;5013062;28;20475;-77
2023/06/22 03:01:40;;;;;;;2.10;2.00;;;24.40;46.30;;;;;;5005338;28;20820;-76
2023/06/22 03:04:09;;;;;;;2.30;2.20;;;24.40;46.30;;;;;;5013049;28;20474;-76
2023/06/22 03:06:35;;;;;;;2.03;1.93;;;24.40;46.30;;;;;;5010840;28;20460;-76
2023/06/22 03:09:04;;;;;;;2.30;2.20;;;24.40;46.30;;;;;;5012570;28;20963;-76
2023/06/22 03:11:34;;;;;;;2.10;2.00;;;24.40;46.30;;;;;;5007735;28;20525;-76
2023/06/22 03:14:00;;;;;;;2.00;1.90;;;24.40;46.30;;;;;;5020900;28;20455;-72
2023/06/22 03:16:26;;;;;;;2.50;2.40;;;24.40;46.30;;;;;;5014715;28;20574;-77
2023/06/22 03:18:53;;;;;;;2.30;2.20;;;24.40;46.30;;;;;;5019804;28;20475;-77
2023/06/22 03:21:22;;;;;;;2.07;1.97;;;24.40;46.30;;;;;;5007260;28;20257;-80
2023/06/22 03:23:48;;;;;;;2.33;2.13;;;24.40;46.30;;;;;;5017781;28;20472;-79
2023/06/22 03:26:17;;;;;;;2.03;1.93;;;24.40;46.30;;;;;;5009854;28;20511;-79
2023/06/22 03:28:43;;;;;;;3.33;3.13;;;24.40;46.30;;;;;;5014241;28;20257;-79
2023/06/22 03:31:08;;;;;;;3.47;3.17;;;24.40;46.20;;;;;;5019634;28;20587;-79
2023/06/22 03:33:34;;;;;;;2.90;2.70;;;24.40;46.00;;;;;;5017056;28;20238;-79
2023/06/22 03:35:59;;;;;;;3.57;3.37;;;24.40;46.00;;;;;;5007860;28;20704;-74
2023/06/22 03:38:25;;;;;;;3.20;3.00;;;24.40;45.90;;;;;;5015194;28;20246;-80
2023/06/22 03:40:50;;;;;;;3.43;3.23;;;24.40;45.90;;;;;;5009742;28;20219;-80
2023/06/22 03:43:16;;;;;;;3.93;3.63;;;24.40;45.80;;;;;;5021174;28;20230;-79
2023/06/22 03:45:41;;;;;;;3.40;3.20;;;24.40;45.70;;;;;;5019680;28;20229;-79
2023/06/22 03:48:07;;;;;;;4.53;3.80;;;24.40;45.70;;;;;;5022484;28;20206;-79
2023/06/22 03:50:33;;;;;;;2.80;2.70;;;24.40;45.70;;;;;;5013867;28;20305;-78
2023/06/22 03:52:58;;;;;;;2.90;2.73;;;24.40;45.70;;;;;;5024264;28;20368;-77
2023/06/22 03:55:23;;;;;;;5.60;3.33;;;24.40;45.70;;;;;;5019257;28;20215;-79
2023/06/22 03:57:49;;;;;;;7.63;3.00;;;24.40;45.70;;;;;;5012459;28;20222;-79
2023/06/22 04:00:17;;;;;;;3.93;3.50;;;24.40;45.70;;;;;;5013765;28;20769;-79
2023/06/22 04:02:43;;;;;;;6.60;3.17;;;24.40;45.60;;;;;;5016175;28;20248;-77
2023/06/22 04:05:09;;;;;;;6.07;3.40;;;24.40;45.60;;;;;;5013949;28;20863;-77
2023/06/22 04:07:37;;;;;;;3.90;2.93;;;24.40;45.70;;;;;;5015470;28;20225;-76
2023/06/22 04:10:03;;;;;;;2.93;2.73;;;24.50;45.80;;;;;;5020575;28;20531;-76
2023/06/22 04:12:29;;;;;;;2.70;2.60;;;24.40;45.80;;;;;;5010166;28;20467;-76
2023/06/22 04:14:55;;;;;;;2.80;2.70;;;24.40;45.80;;;;;;5005503;28;21296;-78
2023/06/22 04:17:20;;;;;;;2.37;2.27;;;24.50;45.80;;;;;;5018306;28;20229;-74
2023/06/22 04:19:46;;;;;;;2.53;2.13;;;24.50;45.80;;;;;;5016062;28;20317;-78
2023/06/22 04:22:11;;;;;;;2.30;2.20;;;24.50;45.90;;;;;;5018946;28;20332;-79
2023/06/22 04:24:37;;;;;;;2.80;2.47;;;24.50;46.00;;;;;;5009829;28;20560;-79
2023/06/22 04:27:03;;;;;;;2.73;2.63;;;24.50;46.00;;;;;;5020066;28;20222;-80
2023/06/22 04:29:29;;;;;;;2.67;2.47;;;24.50;46.00;;;;;;5021960;28;20222;-79
2023/06/22 04:31:58;;;;;;;3.23;3.03;;;24.50;46.00;;;;;;5012396;28;20446;-79
2023/06/22 04:34:26;;;;;;;6.00;2.70;;;24.50;46.10;;;;;;5017325;28;20470;-77
2023/06/22 04:36:51;;;;;;;3.00;2.47;;;24.50;46.10;;;;;;5010259;28;20521;-79
2023/06/22 04:39:18;;;;;;;2.43;2.27;;;24.50;46.10;;;;;;5018969;28;20476;-79
2023/06/22 04:41:44;;;;;;;3.13;2.80;;;24.50;46.20;;;;;;5013803;28;20624;-77
2023/06/22 04:44:11;;;;;;;3.47;2.77;;;24.50;46.10;;;;;;5004678;28;20452;-75
2023/06/22 04:46:40;;;;;;;2.50;2.40;;;24.50;46.20;;;;;;5007358;28;20741;-76
2023/06/22 04:49:09;;;;;;;2.50;2.40;;;24.50;46.20;;;;;;5019983;28;20546;-77
2023/06/22 04:51:40;;;;;;;3.10;2.80;;;24.50;46.20;;;;;;5017172;28;20455;-77
2023/06/22 04:54:06;;;;;;;3.00;2.70;;;24.50;46.30;;;;;;5012261;28;20836;-77
2023/06/22 04:56:33;;;;;;;2.63;2.43;;;24.50;46.30;;;;;;5011474;28;20490;-78
2023/06/22 04:58:59;;;;;;;2.60;2.40;;;24.50;46.30;;;;;;5016634;28;21218;-78
2023/06/22 05:01:25;;;;;;;2.77;2.47;;;24.50;46.30;;;;;;5014815;28;20553;-78
2023/06/22 05:03:55;;;;;;;3.00;2.57;;;24.50;46.30;;;;;;5021313;28;20693;-76
2023/06/22 05:06:24;;;;;;;3.77;3.23;;;24.50;46.30;;;;;;5017264;28;20927;-83
2023/06/22 05:08:52;;;;;;;2.40;2.30;;;24.50;46.40;;;;;;5010675;28;21042;-81
2023/06/22 05:11:18;;;;;;;8.73;2.50;;;24.50;46.40;;;;;;5004652;28;20838;-79
2023/06/22 05:13:44;;;;;;;2.73;2.63;;;24.50;46.40;;;;;;5017795;28;20464;-78
2023/06/22 05:16:09;;;;;;;2.73;2.53;;;24.50;46.50;;;;;;5007036;28;20285;-74
2023/06/22 05:18:36;;;;;;;3.27;2.43;;;24.50;46.50;;;;;;4999644;28;20223;-77
2023/06/22 05:21:01;;;;;;;2.97;2.77;;;24.50;46.50;;;;;;4993906;28;20219;-77
2023/06/22 05:23:27;;;;;;;2.97;2.70;;;24.50;46.50;;;;;;4994718;28;20445;-77
2023/06/22 05:25:54;;;;;;;2.70;2.50;;;24.50;46.50;;;;;;4998636;28;20237;-75
2023/06/22 05:28:22;;;;;;;2.97;2.77;;;24.50;46.50;;;;;;5019965;28;20215;-73
2023/06/22 05:30:48;;;;;;;3.50;3.00;;;24.50;46.50;;;;;;5009686;28;20457;-73
2023/06/22 05:33:13;;;;;;;3.53;3.23;;;24.50;46.60;;;;;;5013984;28;20462;-74
2023/06/22 05:35:39;;;;;;;3.00;2.43;;;24.50;46.60;;;;;;5000280;28;20217;-75
2023/06/22 05:38:04;;;;;;;2.80;2.70;;;24.50;46.60;;;;;;5021689;28;20308;-75
2023/06/22 05:40:30;;;;;;;2.70;2.50;;;24.50;46.80;;;;;;5014823;28;20276;-74
2023/06/22 05:42:55;;;;;;;3.30;3.10;;;24.50;46.70;;;;;;5004178;28;20322;-75
2023/06/22 05:45:21;;;;;;;2.60;2.50;;;24.50;46.70;;;;;;5013842;28;20396;-76
2023/06/22 05:47:47;;;;;;;3.00;2.80;;;24.50;46.70;;;;;;5019300;28;20227;-76
2023/06/22 05:50:12;;;;;;;3.90;3.00;;;24.50;46.70;;;;;;5015863;28;20774;-75
2023/06/22 05:52:37;;;;;;;2.73;2.63;;;24.50;46.70;;;;;;5010859;28;20616;-76
2023/06/22 05:55:03;;;;;;;3.37;3.17;;;24.50;46.70;;;;;;5018718;28;20225;-76
2023/06/22 05:57:29;;;;;;;2.80;2.60;;;24.50;46.70;;;;;;5016670;28;20249;-76
2023/06/22 05:59:54;;;;;;;2.80;2.60;;;24.50;46.80;;;;;;5016011;28;20316;-76
2023/06/22 06:02:20;;;;;;;3.07;2.97;;;24.50;46.80;;;;;;5005524;28;20309;-76
2023/06/22 06:04:46;;;;;;;2.80;2.70;;;24.50;46.80;;;;;;5003727;28;20214;-77
2023/06/22 06:07:11;;;;;;;3.50;3.30;;;24.50;46.80;;;;;;5008361;28;20301;-77
2023/06/22 06:09:37;;;;;;;2.80;2.70;;;24.50;47.00;;;;;;5001421;28;20219;-81
2023/06/22 06:12:03;;;;;;;3.50;3.30;;;24.50;46.90;;;;;;5017080;28;20701;-77
2023/06/22 06:14:28;;;;;;;3.80;3.60;;;24.50;47.00;;;;;;5019995;28;20218;-78
2023/06/22 06:16:54;;;;;;;3.80;3.60;;;24.50;47.00;;;;;;5017511;28;20222;-78
2023/06/22 06:19:19;;;;;;;3.30;3.20;;;24.40;46.90;;;;;;5019123;28;20327;-79
2023/06/22 06:21:45;;;;;;;4.57;4.27;;;24.50;47.10;;;;;;5013377;28;20234;-80
2023/06/22 06:24:12;;;;;;;4.70;4.50;;;24.50;47.10;;;;;;5014985;28;20218;-80
2023/06/22 06:26:37;;;;;;;4.03;3.73;;;24.40;47.00;;;;;;5003038;28;20456;-78
2023/06/22 06:29:03;;;;;;;3.77;3.57;;;24.40;47.10;;;;;;5022546;28;20459;-77
2023/06/22 06:31:29;;;;;;;3.50;3.30;;;24.40;47.10;;;;;;5017346;28;20704;-79
2023/06/22 06:33:55;;;;;;;3.37;3.17;;;24.40;47.10;;;;;;5003868;28;20218;-79
2023/06/22 06:36:20;;;;;;;3.70;3.50;;;24.50;47.60;;;;;;5011940;28;20222;-77
2023/06/22 06:38:47;;;;;;;3.43;3.23;;;24.40;47.20;;;;;;5004860;28;20222;-77
2023/06/22 06:41:14;;;;;;;3.90;3.67;;;24.50;47.30;;;;;;5010407;28;20580;-77
2023/06/22 06:43:40;;;;;;;3.83;3.63;;;24.50;47.30;;;;;;5001938;28;20861;-76
2023/06/22 06:46:05;;;;;;;4.00;3.70;;;24.40;47.20;;;;;;5014772;28;20497;-77
2023/06/22 06:48:31;;;;;;;3.70;3.50;;;24.40;47.20;;;;;;5010253;28;20708;-78
2023/06/22 06:50:57;;;;;;;3.83;3.63;;;24.40;47.20;;;;;;5015353;28;20326;-77
2023/06/22 06:53:22;;;;;;;3.50;3.30;;;24.40;47.20;;;;;;5010535;28;20305;-77
2023/06/22 06:55:48;;;;;;;4.10;3.90;;;24.40;47.30;;;;;;5012781;28;20210;-76
2023/06/22 06:58:13;;;;;;;3.87;3.67;;;24.40;47.30;;;;;;5009330;28;20219;-76
2023/06/22 07:00:39;;;;;;;4.03;3.73;;;24.40;47.30;;;;;;5011946;28;20276;-76
2023/06/22 07:03:05;;;;;;;4.90;4.60;;;24.40;47.30;;;;;;5024677;28;20706;-76
2023/06/22 07:05:30;;;;;;;5.17;4.87;;;24.40;47.40;;;;;;5021180;28;20221;-76
2023/06/22 07:07:56;;;;;;;3.97;3.70;;;24.40;47.40;;;;;;5010300;28;20334;-76
2023/06/22 07:10:22;;;;;;;3.80;3.50;;;24.40;47.50;;;;;;5026379;28;20230;-76
2023/06/22 07:12:47;;;;;;;3.97;3.77;;;24.40;47.50;;;;;;5006372;28;20249;-74
2023/06/22 07:15:13;;;;;;;3.60;3.40;;;24.40;47.50;;;;;;5010623;28;20785;-75
2023/06/22 07:17:40;;;;;;;3.70;3.50;;;24.40;47.50;;;;;;5007236;28;20285;-74
2023/06/22 07:20:11;;;;;;;3.43;3.23;;;24.40;47.50;;;;;;5013740;28;20455;-73
2023/06/22 07:22:44;;;;;;;3.60;3.40;;;24.40;47.50;;;;;;5013742;28;20499;-74
2023/06/22 07:25:13;;;;;;;3.67;3.47;;;24.40;47.50;;;;;;5020283;28;20474;-74
2023/06/22 07:27:43;;;;;;;3.50;3.30;;;24.40;48.30;;;;;;5012285;28;20503;-75
2023/06/22 07:30:10;;;;;;;3.50;3.30;;;24.40;47.50;;;;;;5000056;28;20469;-74
2023/06/22 07:32:36;;;;;;;3.97;3.73;;;24.40;47.50;;;;;;5000568;28;21081;-74
2023/06/22 07:35:02;;;;;;;3.53;3.33;;;24.40;47.50;;;;;;4999793;28;20464;-75
2023/06/22 07:37:33;;;;;;;3.30;3.03;;;24.40;47.50;;;;;;5000401;28;20472;-75
2023/06/22 07:39:58;;;;;;;3.70;3.40;;;24.40;47.50;;;;;;4997733;28;20231;-74
2023/06/22 07:42:32;;;;;;;3.47;3.37;;;24.40;47.50;;;;;;4999301;28;20449;-75
2023/06/22 07:44:58;;;;;;;3.83;3.63;;;24.40;47.50;;;;;;5017868;28;20694;-74
2023/06/22 07:47:26;;;;;;;3.70;3.40;;;24.40;47.50;;;;;;5015910;28;20464;-74
2023/06/22 07:49:54;;;;;;;3.30;3.10;;;24.40;47.50;;;;;;5014700;28;20813;-73
2023/06/22 07:52:20;;;;;;;3.47;3.27;;;24.40;47.50;;;;;;5000939;28;20825;-75
2023/06/22 07:54:46;;;;;;;3.47;3.30;;;24.40;47.50;;;;;;5004778;28;20453;-74
2023/06/22 07:57:12;;;;;;;3.13;2.93;;;24.40;47.50;;;;;;5014724;28;20463;-74
2023/06/22 07:59:38;;;;;;;4.00;3.67;;;24.40;47.50;;;;;;5014022;28;20234;-74
2023/06/22 08:02:04;;;;;;;4.10;3.80;;;24.40;47.50;;;;;;5010688;28;21177;-74
2023/06/22 08:04:31;;;;;;;3.97;3.77;;;24.40;47.60;;;;;;5000102;28;20241;-72
2023/06/22 08:06:57;;;;;;;3.93;3.73;;;24.40;47.50;;;;;;4991446;28;20456;-73
2023/06/22 08:09:23;;;;;;;3.87;3.67;;;24.40;47.50;;;;;;5006242;28;20774;-75
2023/06/22 08:11:49;;;;;;;3.53;3.33;;;24.40;47.20;;;;;;5012016;28;20725;-75
2023/06/22 08:14:14;;;;;;;4.00;3.80;;;24.40;47.70;;;;;;5004689;28;20226;-74
2023/06/22 08:16:41;;;;;;;3.80;3.60;;;24.40;47.50;;;;;;5007115;28;20218;-75
2023/06/22 08:19:07;;;;;;;3.73;3.53;;;24.40;47.60;;;;;;5009892;28;20241;-75
2023/06/22 08:21:33;;;;;;;4.13;3.83;;;24.40;47.70;;;;;;5013911;28;20474;-74
2023/06/22 08:23:58;;;;;;;3.77;3.57;;;24.40;47.60;;;;;;5010660;28;20219;-77
2023/06/22 08:26:24;;;;;;;3.70;3.43;;;24.40;47.60;;;;;;5005754;28;20237;-74
2023/06/22 08:28:49;;;;;;;3.57;3.37;;;24.40;47.60;;;;;;5014048;28;20230;-76
2023/06/22 08:31:15;;;;;;;3.37;3.27;;;24.40;47.60;;;;;;5012471;28;20217;-76
2023/06/22 08:33:43;;;;;;;3.50;3.30;;;24.50;47.60;;;;;;5002972;28;20231;-76
2023/06/22 08:36:10;;;;;;;3.40;3.20;;;24.40;47.60;;;;;;5005445;28;20349;-74
2023/06/22 08:38:36;;;;;;;3.87;3.67;;;24.40;47.60;;;;;;4991431;28;20443;-75
2023/06/22 08:41:02;;;;;;;3.40;3.30;;;24.50;47.60;;;;;;5011105;28;20507;-74
2023/06/22 08:43:28;;;;;;;3.50;3.30;;;24.50;47.70;;;;;;5000884;28;20219;-75
2023/06/22 08:45:53;;;;;;;4.17;3.97;;;24.50;47.70;;;;;;5013993;28;20774;-74
2023/06/22 08:48:19;;;;;;;3.67;3.47;;;24.40;48.50;;;;;;5013000;28;20225;-75
2023/06/22 08:50:44;;;;;;;3.73;3.53;;;24.50;47.70;;;;;;4996964;28;20694;-75
2023/06/22 08:53:10;;;;;;;3.67;3.47;;;24.50;47.70;;;;;;5013101;28;20219;-76
2023/06/22 08:55:35;;;;;;;3.83;3.63;;;24.50;47.60;;;;;;5009065;28;20218;-75
2023/06/22 08:58:01;;;;;;;3.97;3.67;;;24.50;47.60;;;;;;5008454;28;20219;-74
2023/06/22 09:00:28;;;;;;;3.77;3.57;;;24.50;47.70;;;;;;5010459;28;20234;-76
2023/06/22 09:02:58;;;;;;;3.50;3.30;;;24.50;47.70;;;;;;5002308;28;20229;-75
2023/06/22 09:05:25;;;;;;;3.20;3.00;;;24.50;47.70;;;;;;5000930;28;20477;-75
2023/06/22 09:07:51;;;;;;;3.80;3.60;;;24.50;47.70;;;;;;5007276;28;21429;-75
2023/06/22 09:10:17;;;;;;;3.93;3.73;;;24.50;47.70;;;;;;5011386;28;20460;-75
2023/06/22 09:12:43;;;;;;;3.70;3.50;;;24.50;47.70;;;;;;5011646;28;21191;-75
2023/06/22 09:15:09;;;;;;;3.40;3.20;;;24.50;47.70;;;;;;5001915;28;20230;-75
2023/06/22 09:17:35;;;;;;;4.33;4.13;;;24.50;47.70;;;;;;5006559;28;20233;-74
2023/06/22 09:20:01;;;;;;;3.83;3.63;;;24.50;47.70;;;;;;5007446;28;20614;-74
2023/06/22 09:22:29;;;;;;;4.10;3.90;;;24.50;47.70;;;;;;4993583;28;20444;-75
2023/06/22 09:24:55;;;;;;;4.00;3.80;;;24.50;47.70;;;;;;5010974;28;20475;-76
2023/06/22 09:27:22;;;;;;;3.87;3.67;;;24.50;47.80;;;;;;5010836;28;20526;-75
2023/06/22 09:29:48;;;;;;;3.53;3.33;;;24.50;47.70;;;;;;5007356;28;20847;-75
2023/06/22 09:32:13;;;;;;;3.80;3.60;;;24.50;47.80;;;;;;4999938;28;21022;-75
2023/06/22 09:34:39;;;;;;;3.87;3.67;;;24.50;47.70;;;;;;4994738;28;20306;-75
2023/06/22 09:37:05;;;;;;;3.80;3.60;;;24.50;48.50;;;;;;4992034;28;20318;-74
2023/06/22 09:39:30;;;;;;;3.77;3.57;;;24.50;47.70;;;;;;5013252;28;20235;-74
2023/06/22 09:41:59;;;;;;;4.27;3.80;;;24.50;47.70;;;;;;5018990;28;20459;-74
2023/06/22 09:44:24;;;;;;;3.93;3.73;;;24.50;47.70;;;;;;5008170;28;20244;-74
2023/06/22 09:46:50;;;;;;;4.07;3.87;;;24.50;47.70;;;;;;5024211;28;20448;-75
2023/06/22 09:49:15;;;;;;;4.20;3.83;;;24.50;47.80;;;;;;5015955;28;20221;-74
2023/06/22 09:51:41;;;;;;;4.03;3.83;;;24.50;47.70;;;;;;5013005;28;20352;-75
2023/06/22 09:54:06;;;;;;;3.50;3.30;;;24.50;47.80;;;;;;5009248;28;20871;-74
2023/06/22 09:56:37;;;;;;;4.03;3.83;;;24.50;47.80;;;;;;5026856;28;20225;-74
2023/06/22 09:59:03;;;;;;;4.37;4.17;;;24.50;47.70;;;;;;5017230;28;20482;-73
2023/06/22 10:01:29;;;;;;;3.87;3.67;;;24.50;47.80;;;;;;5008767;28;20551;-75
2023/06/22 10:03:56;;;;;;;4.23;3.93;;;24.50;47.80;;;;;;5003224;28;20467;-74
2023/06/22 10:06:22;;;;;;;3.47;3.37;;;24.50;47.80;;;;;;5016194;28;20230;-75
2023/06/22 10:08:49;;;;;;;4.13;3.93;;;24.50;47.80;;;;;;5012964;28;20457;-75
2023/06/22 10:11:15;;;;;;;3.77;3.53;;;24.50;47.80;;;;;;5014364;28;20456;-74
2023/06/22 10:13:40;;;;;;;4.20;4.00;;;24.50;47.80;;;;;;5022797;28;20448;-74
2023/06/22 10:16:06;;;;;;;3.87;3.67;;;24.50;47.70;;;;;;5028843;28;20219;-75
2023/06/22 10:18:32;;;;;;;3.50;3.30;;;24.50;47.80;;;;;;5030723;28;20792;-74
2023/06/22 10:20:58;;;;;;;3.50;3.30;;;24.60;48.00;;;;;;5003380;28;20463;-75
2023/06/22 10:23:23;;;;;;;4.13;3.93;;;24.50;47.80;;;;;;5014107;28;20219;-74
2023/06/22 10:25:49;;;;;;;4.10;3.90;;;24.60;47.90;;;;;;5014595;28;20239;-74
2023/06/22 10:28:15;;;;;;;4.10;3.90;;;24.60;47.90;;;;;;5011566;28;20226;-74
2023/06/22 10:30:41;;;;;;;3.80;3.60;;;24.50;47.80;;;;;;5013698;28;20219;-75
2023/06/22 10:33:08;;;;;;;4.30;4.10;;;24.60;47.90;;;;;;5005411;28;20489;-75
2023/06/22 10:35:34;;;;;;;3.90;3.70;;;24.60;47.90;;;;;;4996527;28;20485;-75
2023/06/22 10:37:59;;;;;;;3.70;3.50;;;24.60;47.90;;;;;;5000924;28;20912;-75
2023/06/22 10:40:25;;;;;;;4.40;4.20;;;24.60;47.90;;;;;;5005602;28;20231;-75
2023/06/22 10:42:51;;;;;;;3.80;3.60;;;24.50;47.90;;;;;;5017082;28;20233;-75
2023/06/22 10:45:16;;;;;;;7.70;3.97;;;24.50;47.80;;;;;;5013806;28;20224;-75
2023/06/22 10:47:42;;;;;;;4.10;3.90;;;24.50;47.90;;;;;;5014957;28;20275;-75
2023/06/22 10:50:08;;;;;;;3.70;3.50;;;24.50;47.90;;;;;;5010342;28;20235;-75
2023/06/22 10:52:34;;;;;;;4.13;3.93;;;24.50;47.90;;;;;;5012081;28;20863;-74
2023/06/22 10:54:59;;;;;;;4.00;3.77;;;24.60;48.00;;;;;;5013791;28;20735;-77
2023/06/22 10:57:25;;;;;;;3.97;3.77;;;24.50;47.80;;;;;;5020330;28;20218;-76
2023/06/22 10:59:51;;;;;;;3.80;3.60;;;24.60;48.00;;;;;;5007764;28;20241;-76
2023/06/22 11:02:17;;;;;;;4.10;3.90;;;24.50;47.90;;;;;;5024101;28;20224;-76
2023/06/22 11:04:42;;;;;;;3.80;3.60;;;24.50;48.00;;;;;;5004317;28;20222;-76
2023/06/22 11:07:08;;;;;;;4.00;3.80;;;24.50;48.70;;;;;;5013029;28;20222;-76
2023/06/22 11:09:34;;;;;;;3.60;3.40;;;24.50;48.00;;;;;;5017188;28;20700;-76
2023/06/22 11:11:59;;;;;;;3.63;3.43;;;24.50;48.00;;;;;;5016546;28;20487;-77
2023/06/22 11:14:25;;;;;;;4.13;3.93;;;24.50;48.00;;;;;;5019641;28;20239;-77
2023/06/22 11:16:51;;;;;;;4.00;3.80;;;24.60;48.00;;;;;;5016638;28;20230;-77
2023/06/22 11:19:18;;;;;;;4.33;4.13;;;24.50;47.90;;;;;;5013438;28;20857;-77
2023/06/22 11:21:44;;;;;;;3.77;3.57;;;24.50;48.00;;;;;;5018132;28;20451;-76
2023/06/22 11:24:09;;;;;;;3.70;3.50;;;24.50;48.00;;;;;;5015081;28;20459;-76
2023/06/22 11:26:35;;;;;;;3.90;3.70;;;24.50;48.00;;;;;;5009170;28;20255;-76
2023/06/22 11:29:04;;;;;;;3.90;3.70;;;24.50;48.00;;;;;;5009660;28;20225;-75
2023/06/22 11:31:30;;;;;;;4.13;3.87;;;24.50;48.00;;;;;;5008468;28;20460;-75
2023/06/22 11:33:56;;;;;;;4.00;3.80;;;24.50;47.90;;;;;;5006051;28;20441;-76
2023/06/22 11:36:21;;;;;;;3.83;3.63;;;24.50;48.00;;;;;;5012622;28;20221;-76
2023/06/22 11:38:47;;;;;;;3.63;3.43;;;24.50;48.00;;;;;;5002403;28;20222;-75
2023/06/22 11:41:13;;;;;;;3.80;3.60;;;24.50;48.00;;;;;;5010466;28;20218;-76
2023/06/22 11:43:39;;;;;;;4.30;4.00;;;24.50;47.90;;;;;;5012054;28;20226;-77
2023/06/22 11:46:07;;;;;;;4.40;4.10;;;24.50;48.00;;;;;;5015047;28;20448;-77
2023/06/22 11:48:33;;;;;;;3.87;3.67;;;24.50;48.00;;;;;;5024641;28;20653;-76
2023/06/22 11:50:58;;;;;;;3.73;3.53;;;24.50;48.00;;;;;;5014482;28;20456;-77
2023/06/22 11:53:26;;;;;;;3.73;3.53;;;24.50;48.00;;;;;;5007438;28;20232;-76
2023/06/22 11:55:53;;;;;;;4.07;3.87;;;24.50;48.00;;;;;;5018181;28;20281;-76
2023/06/22 11:58:19;;;;;;;4.13;3.93;;;24.50;48.00;;;;;;5013205;28;20456;-76
2023/06/22 12:00:45;;;;;;;4.30;4.00;;;24.50;48.00;;;;;;5015125;28;20519;-76
2023/06/22 12:03:11;;;;;;;4.10;3.90;;;24.50;48.00;;;;;;5010912;28;20215;-75
2023/06/22 12:05:38;;;;;;;4.30;4.10;;;24.50;48.00;;;;;;5022454;28;20215;-76
2023/06/22 12:08:04;;;;;;;3.83;3.63;;;24.50;48.00;;;;;;5019439;28;20447;-75
2023/06/22 12:10:29;;;;;;;3.77;3.57;;;24.50;48.00;;;;;;5009337;28;20460;-75
2023/06/22 12:12:55;;;;;;;3.73;3.60;;;24.50;48.00;;;;;;5014590;28;20458;-76
2023/06/22 12:15:20;;;;;;;3.60;3.30;;;24.50;48.00;;;;;;5023168;28;20250;-76
2023/06/22 12:17:48;;;;;;;4.57;4.37;;;24.50;48.00;;;;;;5013232;28;20257;-78
2023/06/22 12:20:13;;;;;;;4.23;4.03;;;24.50;48.00;;;;;;5014233;28;20261;-77
2023/06/22 12:22:40;;;;;;;3.73;3.53;;;24.50;48.00;;;;;;5019660;28;20570;-75
2023/06/22 12:25:07;;;;;;;3.67;3.47;;;24.50;48.00;;;;;;5014199;28;20239;-76
2023/06/22 12:27:32;;;;;;;4.33;4.13;;;24.50;48.00;;;;;;5004819;28;20967;-75
2023/06/22 12:29:58;;;;;;;3.63;3.43;;;24.50;48.00;;;;;;5018599;28;20467;-78
2023/06/22 12:32:24;;;;;;;3.87;3.67;;;24.50;48.00;;;;;;5017325;28;20222;-75
2023/06/22 12:34:49;;;;;;;3.37;3.17;;;24.50;48.00;;;;;;5017845;28;20766;-76
2023/06/22 12:37:15;;;;;;;4.20;4.00;;;24.50;48.00;;;;;;5012184;28;20245;-76
2023/06/22 12:39:41;;;;;;;4.30;4.10;;;24.50;48.00;;;;;;5005060;28;20259;-75
2023/06/22 12:42:08;;;;;;;4.07;3.87;;;24.50;48.00;;;;;;5017727;28;20230;-75
2023/06/22 12:44:34;;;;;;;3.80;3.60;;;24.50;48.10;;;;;;5018444;28;20518;-76